Time;durP1;ratioP1;P1;durP2;ratioP2;P2;SDS_P1;SDS_P2;PMS_P1;PMS_P2;Temp;Humidity;BMP_temperature;BMP_pressure;BME280_temperature;BME280_humidity;BME280_pressure;Samples;Min_cycle;Max_cycle;Signal;HPM_P1;HPM_P2
2023/04/21 00:00:30;;;;;;;17.33;2.33;;;;;;;;;;5033177;28;20077;-48
2023/04/21 00:02:57;;;;;;;12.70;2.47;;;;;;;;;;5032737;28;20029;-47
2023/04/21 00:05:24;;;;;;;18.13;3.17;;;;;;;;;;5051143;28;20048;-48
2023/04/21 00:07:51;;;;;;;19.20;3.10;;;;;;;;;;5073325;28;20039;-48
2023/04/21 00:10:18;;;;;;;18.77;3.22;;;;;;;;;;5073934;28;20111;-49
2023/04/21 00:12:45;;;;;;;26.73;4.22;;;;;;;;;;5073204;28;20032;-47
2023/04/21 00:15:12;;;;;;;18.52;3.85;;;;;;;;;;5060351;28;20482;-47
2023/04/21 00:17:39;;;;;;;25.23;4.35;;;;;;;;;;5073593;28;20033;-47
2023/04/21 00:20:07;;;;;;;26.73;5.18;;;;;;;;;;5073668;28;20028;-51
2023/04/21 00:22:34;;;;;;;39.00;8.57;;;;;;;;;;5073325;28;20035;-51
2023/04/21 00:25:02;;;;;;;63.20;13.13;;;;;;;;;;5069152;28;20021;-50
2023/04/21 00:27:29;;;;;;;65.05;12.38;;;;;;;;;;5070828;28;20072;-49
2023/04/21 00:29:55;;;;;;;52.28;11.95;;;;;;;;;;5072758;28;20032;-53
2023/04/21 00:32:22;;;;;;;79.20;17.45;;;;;;;;;;5073615;28;20029;-48
2023/04/21 00:34:49;;;;;;;72.10;14.10;;;;;;;;;;5073647;28;20036;-48
2023/04/21 00:37:16;;;;;;;71.55;14.95;;;;;;;;;;5073047;28;20028;-50
2023/04/21 00:39:43;;;;;;;74.13;16.27;;;;;;;;;;5073173;28;20363;-51
2023/04/21 00:42:10;;;;;;;78.10;15.48;;;;;;;;;;5073612;28;20032;-49
2023/04/21 00:44:37;;;;;;;74.75;16.10;;;;;;;;;;5073304;28;20090;-48
2023/04/21 00:47:04;;;;;;;70.88;15.88;;;;;;;;;;5073485;28;20033;-48
2023/04/21 00:49:31;;;;;;;62.92;16.80;;;;;;;;;;5073086;28;20028;-48
2023/04/21 00:51:58;;;;;;;60.53;16.67;;;;;;;;;;5073439;28;20028;-48
2023/04/21 00:54:25;;;;;;;73.80;19.02;;;;;;;;;;5072784;28;20060;-49
2023/04/21 00:56:52;;;;;;;73.93;18.70;;;;;;;;;;5072571;28;20029;-51
2023/04/21 00:59:20;;;;;;;72.05;20.00;;;;;;;;;;5072295;28;20127;-48
2023/04/21 01:01:47;;;;;;;77.10;21.27;;;;;;;;;;5073049;28;20047;-47
2023/04/21 01:04:14;;;;;;;72.30;20.80;;;;;;;;;;5072044;28;20068;-48
2023/04/21 01:06:42;;;;;;;75.07;22.05;;;;;;;;;;5073192;28;20028;-48
2023/04/21 01:09:11;;;;;;;70.03;21.52;;;;;;;;;;5072436;28;20189;-52
2023/04/21 01:11:38;;;;;;;67.72;21.67;;;;;;;;;;5068119;28;20029;-52
2023/04/21 01:14:05;;;;;;;67.40;21.38;;;;;;;;;;5052850;28;20032;-49
2023/04/21 01:16:33;;;;;;;69.13;22.00;;;;;;;;;;5069317;28;20020;-48
2023/04/21 01:19:00;;;;;;;64.05;19.65;;;;;;;;;;5072039;28;20089;-49
2023/04/21 01:21:27;;;;;;;69.43;19.08;;;;;;;;;;5066909;28;20028;-52
2023/04/21 01:23:55;;;;;;;76.95;19.48;;;;;;;;;;5058137;28;20024;-49
2023/04/21 01:26:22;;;;;;;68.72;18.92;;;;;;;;;;5068251;28;20024;-51
2023/04/21 01:28:49;;;;;;;68.95;18.25;;;;;;;;;;5063782;28;20043;-50
2023/04/21 01:31:17;;;;;;;53.72;16.63;;;;;;;;;;5071297;28;20029;-49
2023/04/21 01:33:44;;;;;;;57.15;17.30;;;;;;;;;;5069902;28;20032;-50
2023/04/21 01:36:11;;;;;;;76.38;18.27;;;;;;;;;;5053510;28;20041;-54
2023/04/21 01:38:39;;;;;;;67.07;16.70;;;;;;;;;;5072072;28;20036;-49
2023/04/21 01:41:07;;;;;;;55.95;16.02;;;;;;;;;;5071014;28;20037;-50
2023/04/21 01:43:34;;;;;;;52.53;16.55;;;;;;;;;;5071573;28;20112;-53
2023/04/21 01:46:01;;;;;;;51.90;14.77;;;;;;;;;;5066520;28;20111;-51
2023/04/21 01:48:28;;;;;;;48.63;14.63;;;;;;;;;;5072274;28;20033;-51
2023/04/21 01:50:55;;;;;;;48.50;14.05;;;;;;;;;;5065881;28;20043;-48
2023/04/21 01:53:22;;;;;;;46.00;14.13;;;;;;;;;;5061712;28;20533;-48
2023/04/21 01:55:49;;;;;;;49.58;13.57;;;;;;;;;;5061066;28;20043;-48
2023/04/21 01:58:16;;;;;;;43.22;12.75;;;;;;;;;;5062751;28;20041;-49
2023/04/21 02:00:43;;;;;;;39.20;12.25;;;;;;;;;;5058509;28;20029;-52
2023/04/21 02:03:10;;;;;;;41.40;12.75;;;;;;;;;;5068013;28;20068;-54
2023/04/21 02:05:37;;;;;;;40.22;11.90;;;;;;;;;;5066491;28;20075;-50
2023/04/21 02:08:05;;;;;;;37.08;11.18;;;;;;;;;;5068767;28;20131;-51
2023/04/21 02:10:32;;;;;;;33.70;11.48;;;;;;;;;;5068168;28;20487;-49
2023/04/21 02:12:59;;;;;;;30.85;10.30;;;;;;;;;;5061774;28;20029;-49
2023/04/21 02:15:27;;;;;;;34.60;10.05;;;;;;;;;;5059782;28;20036;-52
2023/04/21 02:17:53;;;;;;;36.13;10.32;;;;;;;;;;5061736;28;20089;-50
2023/04/21 02:20:20;;;;;;;30.23;9.70;;;;;;;;;;5062704;28;20037;-49
2023/04/21 02:22:47;;;;;;;31.30;9.60;;;;;;;;;;5058733;28;20424;-48
2023/04/21 02:25:14;;;;;;;27.25;8.85;;;;;;;;;;5051798;28;20032;-49
2023/04/21 02:27:41;;;;;;;28.33;8.80;;;;;;;;;;5051953;28;20032;-50
2023/04/21 02:30:09;;;;;;;26.50;8.20;;;;;;;;;;5051760;28;20460;-49
2023/04/21 02:32:36;;;;;;;30.08;9.02;;;;;;;;;;5051800;28;20032;-51
2023/04/21 02:35:03;;;;;;;23.48;8.70;;;;;;;;;;5051912;28;20368;-50
2023/04/21 02:37:30;;;;;;;27.98;8.15;;;;;;;;;;5051803;28;20079;-49
2023/04/21 02:39:57;;;;;;;28.10;8.02;;;;;;;;;;5051584;28;20487;-48
2023/04/21 02:42:24;;;;;;;31.70;8.57;;;;;;;;;;5051799;28;20031;-50
2023/04/21 02:44:51;;;;;;;24.75;7.57;;;;;;;;;;5051687;28;20024;-49
2023/04/21 02:47:18;;;;;;;23.05;7.32;;;;;;;;;;5051702;28;20074;-50
2023/04/21 02:49:45;;;;;;;22.17;6.70;;;;;;;;;;5051611;28;20399;-50
2023/04/21 02:52:12;;;;;;;26.75;7.40;;;;;;;;;;5051341;28;20029;-51
2023/04/21 02:54:39;;;;;;;22.45;7.82;;;;;;;;;;5051617;28;20480;-50
2023/04/21 02:57:06;;;;;;;22.10;7.18;;;;;;;;;;5051612;28;20479;-49
2023/04/21 02:59:33;;;;;;;21.20;7.10;;;;;;;;;;5051372;28;20052;-48
2023/04/21 03:02:00;;;;;;;20.88;6.45;;;;;;;;;;5051539;28;20027;-49
2023/04/21 03:04:27;;;;;;;20.50;6.32;;;;;;;;;;5051293;28;20053;-52
2023/04/21 03:06:55;;;;;;;18.45;6.05;;;;;;;;;;5051514;28;20491;-48
2023/04/21 03:09:22;;;;;;;20.58;6.57;;;;;;;;;;5051407;28;20029;-49
2023/04/21 03:11:49;;;;;;;15.05;5.88;;;;;;;;;;5051427;28;20581;-48
2023/04/21 03:14:16;;;;;;;21.20;6.05;;;;;;;;;;5051375;28;20029;-48
2023/04/21 03:16:43;;;;;;;18.23;5.90;;;;;;;;;;5051456;28;20032;-51
2023/04/21 03:19:10;;;;;;;17.40;5.85;;;;;;;;;;5051253;28;20033;-49
2023/04/21 03:21:37;;;;;;;23.27;5.93;;;;;;;;;;5051338;28;20025;-48
2023/04/21 03:24:06;;;;;;;15.70;5.28;;;;;;;;;;5051263;28;20043;-50
2023/04/21 03:26:33;;;;;;;18.27;5.18;;;;;;;;;;5051170;28;20037;-50
2023/04/21 03:29:00;;;;;;;19.70;5.40;;;;;;;;;;5051180;28;20047;-48
2023/04/21 03:31:27;;;;;;;18.25;4.97;;;;;;;;;;5051085;28;20037;-49
2023/04/21 03:33:54;;;;;;;14.18;4.93;;;;;;;;;;5051276;28;20036;-48
2023/04/21 03:36:21;;;;;;;14.80;4.20;;;;;;;;;;5051206;28;20040;-48
2023/04/21 03:38:47;;;;;;;15.23;4.95;;;;;;;;;;5051013;28;20025;-52
2023/04/21 03:41:14;;;;;;;16.92;5.13;;;;;;;;;;5033179;28;20462;-49
2023/04/21 03:43:41;;;;;;;12.80;4.18;;;;;;;;;;5051099;28;20017;-52
2023/04/21 03:46:08;;;;;;;12.25;4.30;;;;;;;;;;5050921;28;20037;-49
2023/04/21 03:48:35;;;;;;;17.42;5.13;;;;;;;;;;5050943;28;20051;-48
2023/04/21 03:51:02;;;;;;;12.95;3.88;;;;;;;;;;5051069;28;20033;-49
2023/04/21 03:53:29;;;;;;;14.88;4.03;;;;;;;;;;5051032;28;20025;-48
2023/04/21 03:55:56;;;;;;;14.60;4.35;;;;;;;;;;5050935;28;20033;-49
2023/04/21 03:58:23;;;;;;;14.93;3.42;;;;;;;;;;5051021;28;20033;-51
2023/04/21 04:00:50;;;;;;;12.32;4.30;;;;;;;;;;5050950;28;20049;-49
2023/04/21 04:03:17;;;;;;;13.32;4.35;;;;;;;;;;5052397;28;20112;-49
2023/04/21 04:05:44;;;;;;;14.27;4.13;;;;;;;;;;5054321;28;20049;-50
2023/04/21 04:08:11;;;;;;;9.88;3.55;;;;;;;;;;5054461;28;20025;-49
2023/04/21 04:10:38;;;;;;;13.55;4.07;;;;;;;;;;5054431;28;20024;-49
2023/04/21 04:13:05;;;;;;;10.00;3.35;;;;;;;;;;5054491;28;20112;-49
2023/04/21 04:15:32;;;;;;;11.35;3.67;;;;;;;;;;5054498;28;20049;-52
2023/04/21 04:17:59;;;;;;;14.10;4.00;;;;;;;;;;5054457;28;20155;-49
2023/04/21 04:20:26;;;;;;;9.15;3.63;;;;;;;;;;5054047;28;20392;-49
2023/04/21 04:22:53;;;;;;;8.88;3.05;;;;;;;;;;5054298;28;20025;-50
2023/04/21 04:25:20;;;;;;;11.40;3.30;;;;;;;;;;5054277;28;20033;-49
2023/04/21 04:27:48;;;;;;;16.33;3.40;;;;;;;;;;5054094;28;20121;-49
2023/04/21 04:30:15;;;;;;;8.23;2.78;;;;;;;;;;5054181;28;20060;-52
2023/04/21 04:32:42;;;;;;;8.60;2.85;;;;;;;;;;5053948;28;20025;-50
2023/04/21 04:35:11;;;;;;;8.52;2.50;;;;;;;;;;5054132;28;20025;-49
2023/04/21 04:37:40;;;;;;;12.98;3.10;;;;;;;;;;5053913;28;20021;-50
2023/04/21 04:40:14;;;;;;;10.80;2.78;;;;;;;;;;5053679;28;20052;-52
2023/04/21 04:42:41;;;;;;;11.10;2.88;;;;;;;;;;5053825;28;20483;-49
2023/04/21 04:45:10;;;;;;;11.43;2.67;;;;;;;;;;5053863;28;20036;-48
2023/04/21 04:47:37;;;;;;;7.38;2.47;;;;;;;;;;5053685;28;20033;-49
2023/04/21 04:50:05;;;;;;;9.40;2.75;;;;;;;;;;5053747;28;20380;-49
2023/04/21 04:52:32;;;;;;;9.60;2.60;;;;;;;;;;5053605;28;20028;-49
2023/04/21 04:54:59;;;;;;;9.98;2.22;;;;;;;;;;5053728;28;20024;-50
2023/04/21 04:57:26;;;;;;;7.60;2.10;;;;;;;;;;5053597;28;20025;-49
2023/04/21 04:59:56;;;;;;;5.72;1.90;;;;;;;;;;5053440;28;20040;-50
2023/04/21 05:02:23;;;;;;;9.70;2.50;;;;;;;;;;5053591;28;20032;-51
2023/04/21 05:04:50;;;;;;;7.25;1.77;;;;;;;;;;5053401;28;20127;-49
2023/04/21 05:07:17;;;;;;;7.65;2.10;;;;;;;;;;5053473;28;20048;-48
2023/04/21 05:09:44;;;;;;;8.93;2.45;;;;;;;;;;5053156;28;20082;-53
2023/04/21 05:12:11;;;;;;;8.77;2.45;;;;;;;;;;5053538;28;20033;-49
2023/04/21 05:14:38;;;;;;;9.85;1.83;;;;;;;;;;5052172;28;20017;-49
2023/04/21 05:17:05;;;;;;;6.20;1.67;;;;;;;;;;5053325;28;20063;-50
2023/04/21 05:19:36;;;;;;;8.55;1.70;;;;;;;;;;5053107;28;20507;-49
2023/04/21 05:22:05;;;;;;;8.75;1.90;;;;;;;;;;5053059;28;20388;-49
2023/04/21 05:24:35;;;;;;;7.05;1.95;;;;;;;;;;5052989;28;20032;-50
2023/04/21 05:27:02;;;;;;;4.57;1.90;;;;;;;;;;5052994;28;20029;-49
2023/04/21 05:29:29;;;;;;;5.65;1.70;;;;;;;;;;5053275;28;20395;-50
2023/04/21 05:31:56;;;;;;;5.45;1.52;;;;;;;;;;5052823;28;20033;-49
2023/04/21 05:34:23;;;;;;;7.38;1.50;;;;;;;;;;5052975;28;20029;-48
2023/04/21 05:36:51;;;;;;;7.18;1.60;;;;;;;;;;5053259;28;20174;-49
2023/04/21 05:39:18;;;;;;;6.65;1.60;;;;;;;;;;5052564;28;20407;-49
2023/04/21 05:41:45;;;;;;;11.00;2.03;;;;;;;;;;5052836;28;20039;-50
2023/04/21 05:44:12;;;;;;;5.55;1.52;;;;;;;;;;5052658;28;20158;-49
2023/04/21 05:46:39;;;;;;;6.30;1.60;;;;;;;;;;5052531;28;20045;-48
2023/04/21 05:49:06;;;;;;;6.60;1.38;;;;;;;;;;5052623;28;20033;-48
2023/04/21 05:51:33;;;;;;;4.15;1.40;;;;;;;;;;5052460;28;20029;-51
2023/04/21 05:54:00;;;;;;;7.25;1.30;;;;;;;;;;5052614;28;20031;-48
2023/04/21 05:56:27;;;;;;;4.40;1.42;;;;;;;;;;5052501;28;20039;-53
2023/04/21 05:58:54;;;;;;;8.23;1.50;;;;;;;;;;5034587;28;20426;-48
2023/04/21 06:01:21;;;;;;;7.40;1.45;;;;;;;;;;5051115;28;20040;-51
2023/04/21 06:03:48;;;;;;;7.75;1.38;;;;;;;;;;5052410;28;20032;-49
2023/04/21 06:06:16;;;;;;;3.83;1.00;;;;;;;;;;5052033;28;20048;-48
2023/04/21 06:08:43;;;;;;;6.90;1.30;;;;;;;;;;5051987;28;20055;-50
2023/04/21 06:11:10;;;;;;;4.70;1.23;;;;;;;;;;5052300;28;20091;-49
2023/04/21 06:13:37;;;;;;;4.40;1.30;;;;;;;;;;5052096;28;20450;-49
2023/04/21 06:16:04;;;;;;;7.32;1.23;;;;;;;;;;5052037;28;20390;-49
2023/04/21 06:18:31;;;;;;;8.25;1.58;;;;;;;;;;5052097;28;20027;-53
2023/04/21 06:20:58;;;;;;;5.80;1.38;;;;;;;;;;5058112;28;20040;-50
2023/04/21 06:23:25;;;;;;;3.85;1.20;;;;;;;;;;5072073;28;20025;-48
2023/04/21 06:26:03;;;;;;;5.07;1.20;;;;;;;;;;5071740;28;20046;-48
2023/04/21 06:28:31;;;;;;;6.25;1.10;;;;;;;;;;5071750;28;20044;-49
2023/04/21 06:30:59;;;;;;;5.80;1.30;;;;;;;;;;5071889;28;20036;-48
2023/04/21 06:33:27;;;;;;;4.55;1.08;;;;;;;;;;5071906;28;20025;-48
2023/04/21 06:35:54;;;;;;;3.20;1.25;;;;;;;;;;5078111;28;20035;-52
2023/04/21 06:38:21;;;;;;;4.15;1.10;;;;;;;;;;5091962;28;20027;-51
2023/04/21 06:40:48;;;;;;;11.98;1.70;;;;;;;;;;5092106;28;20047;-49
2023/04/21 06:43:15;;;;;;;6.35;0.98;;;;;;;;;;5091961;28;20112;-50
2023/04/21 06:45:42;;;;;;;5.53;1.15;;;;;;;;;;5091936;28;20058;-51
2023/04/21 06:48:09;;;;;;;2.50;0.80;;;;;;;;;;5091751;28;20066;-47
2023/04/21 06:50:36;;;;;;;3.40;1.00;;;;;;;;;;5091758;28;20032;-48
2023/04/21 06:53:03;;;;;;;8.20;1.23;;;;;;;;;;5091859;28;20038;-49
2023/04/21 06:55:30;;;;;;;7.75;1.23;;;;;;;;;;5090507;28;20498;-47
2023/04/21 06:57:57;;;;;;;2.28;1.02;;;;;;;;;;5091953;28;20055;-48
2023/04/21 07:00:24;;;;;;;5.15;1.13;;;;;;;;;;5091645;28;20047;-50
2023/04/21 07:02:51;;;;;;;3.13;0.98;;;;;;;;;;5091805;28;20035;-49
2023/04/21 07:05:18;;;;;;;3.42;1.10;;;;;;;;;;5091551;28;20502;-49
2023/04/21 07:07:45;;;;;;;7.03;0.90;;;;;;;;;;5091742;28;20099;-48
2023/04/21 07:10:17;;;;;;;5.20;1.23;;;;;;;;;;5091664;28;20074;-49
2023/04/21 07:12:45;;;;;;;4.32;1.00;;;;;;;;;;5091550;28;20043;-48
2023/04/21 07:15:12;;;;;;;4.18;0.95;;;;;;;;;;5091672;28;20024;-49
2023/04/21 07:17:39;;;;;;;5.82;1.00;;;;;;;;;;5091620;28;20031;-51
2023/04/21 07:20:06;;;;;;;4.07;0.90;;;;;;;;;;5091357;28;20043;-49
2023/04/21 07:22:34;;;;;;;5.78;1.10;;;;;;;;;;5091496;28;20012;-48
2023/04/21 07:25:08;;;;;;;5.18;1.20;;;;;;;;;;5091370;28;20475;-48
2023/04/21 07:27:35;;;;;;;6.88;1.33;;;;;;;;;;5091516;28;20020;-48
2023/04/21 07:30:03;;;;;;;3.75;0.80;;;;;;;;;;5091291;28;20039;-48
2023/04/21 07:32:31;;;;;;;5.82;1.05;;;;;;;;;;5091302;28;20157;-49
2023/04/21 07:34:58;;;;;;;4.50;1.17;;;;;;;;;;5091438;28;20040;-47
2023/04/21 07:37:25;;;;;;;3.47;0.90;;;;;;;;;;5091581;28;20036;-48
2023/04/21 07:39:52;;;;;;;4.32;0.77;;;;;;;;;;5095208;28;20375;-48
2023/04/21 07:42:19;;;;;;;4.88;0.90;;;;;;;;;;5095256;28;20036;-49
2023/04/21 07:44:47;;;;;;;4.75;0.85;;;;;;;;;;5095188;28;20032;-48
2023/04/21 07:47:14;;;;;;;2.65;1.02;;;;;;;;;;5095185;28;20544;-50
2023/04/21 07:49:41;;;;;;;4.95;1.00;;;;;;;;;;5095114;28;20128;-48
2023/04/21 07:52:08;;;;;;;4.45;0.90;;;;;;;;;;5095180;28;20107;-47
2023/04/21 07:54:35;;;;;;;6.10;1.10;;;;;;;;;;5095165;28;20059;-50
2023/04/21 07:57:02;;;;;;;3.40;0.90;;;;;;;;;;5095081;28;20028;-49
2023/04/21 07:59:29;;;;;;;3.60;0.73;;;;;;;;;;5094890;28;20485;-48
2023/04/21 08:01:56;;;;;;;4.30;0.95;;;;;;;;;;5094999;28;20039;-50
2023/04/21 08:04:23;;;;;;;4.20;0.90;;;;;;;;;;5094829;28;20029;-48
2023/04/21 08:06:50;;;;;;;3.83;0.80;;;;;;;;;;5094887;28;20024;-49
2023/04/21 08:09:17;;;;;;;5.60;0.93;;;;;;;;;;5094764;28;20056;-48
2023/04/21 08:11:44;;;;;;;3.03;1.00;;;;;;;;;;5094849;28;20028;-48
2023/04/21 08:14:11;;;;;;;5.05;1.15;;;;;;;;;;5094793;28;20020;-48
2023/04/21 08:16:39;;;;;;;2.85;0.70;;;;;;;;;;5094759;28;20023;-48
2023/04/21 08:19:07;;;;;;;5.10;1.00;;;;;;;;;;5094454;28;20078;-48
2023/04/21 08:21:33;;;;;;;3.25;0.90;;;;;;;;;;5094641;28;20024;-48
2023/04/21 08:24:00;;;;;;;2.58;0.68;;;;;;;;;;5094457;28;20044;-49
2023/04/21 08:26:29;;;;;;;4.22;1.08;;;;;;;;;;5094551;28;20020;-49
2023/04/21 08:28:59;;;;;;;1.88;0.80;;;;;;;;;;5094302;28;20040;-50
2023/04/21 08:31:27;;;;;;;3.50;0.82;;;;;;;;;;5094252;28;20398;-48
2023/04/21 08:33:54;;;;;;;5.45;1.02;;;;;;;;;;5094319;28;20371;-49
2023/04/21 08:36:21;;;;;;;2.95;1.10;;;;;;;;;;5094296;28;20040;-49
2023/04/21 08:38:48;;;;;;;4.43;0.90;;;;;;;;;;5094239;28;20102;-48
2023/04/21 08:41:15;;;;;;;5.55;0.80;;;;;;;;;;5092833;28;20032;-50
2023/04/21 08:43:42;;;;;;;4.53;0.90;;;;;;;;;;5094152;28;20032;-48
2023/04/21 08:46:09;;;;;;;5.72;0.88;;;;;;;;;;5094179;28;20031;-48
2023/04/21 08:48:37;;;;;;;2.78;0.80;;;;;;;;;;5094005;28;20036;-50
2023/04/21 08:51:04;;;;;;;3.53;0.98;;;;;;;;;;5094152;28;20468;-48
2023/04/21 08:53:31;;;;;;;4.93;1.25;;;;;;;;;;5094102;28;20028;-48
2023/04/21 08:55:58;;;;;;;4.10;0.77;;;;;;;;;;5093975;28;20020;-47
2023/04/21 08:58:25;;;;;;;4.72;0.90;;;;;;;;;;5093878;28;20530;-48
2023/04/21 09:00:52;;;;;;;2.65;0.80;;;;;;;;;;5093929;28;20050;-48
2023/04/21 09:03:23;;;;;;;4.07;0.80;;;;;;;;;;5093770;28;20032;-47
2023/04/21 09:06:00;;;;;;;2.90;0.85;;;;;;;;;;5093318;28;20066;-49
2023/04/21 09:08:29;;;;;;;4.80;1.13;;;;;;;;;;5093441;28;20063;-50
2023/04/21 09:10:57;;;;;;;3.50;0.80;;;;;;;;;;5093600;28;20040;-51
2023/04/21 09:13:29;;;;;;;3.80;0.90;;;;;;;;;;5084802;28;20040;-48
2023/04/21 09:15:56;;;;;;;2.90;0.60;;;;;;;;;;5088863;28;20107;-48
2023/04/21 09:18:24;;;;;;;3.50;0.90;;;;;;;;;;5058166;28;20040;-48
2023/04/21 09:20:52;;;;;;;6.25;1.13;;;;;;;;;;5058255;28;20409;-49
2023/04/21 09:23:21;;;;;;;3.10;1.00;;;;;;;;;;5061434;28;20403;-48
2023/04/21 09:25:47;;;;;;;4.68;0.93;;;;;;;;;;5073208;28;20059;-50
2023/04/21 09:28:15;;;;;;;4.13;0.80;;;;;;;;;;5065709;28;20079;-49
2023/04/21 09:30:42;;;;;;;3.83;1.10;;;;;;;;;;5062698;28;20040;-48
2023/04/21 09:33:16;;;;;;;4.47;1.00;;;;;;;;;;5064000;28;20021;-48
2023/04/21 09:35:43;;;;;;;4.93;1.08;;;;;;;;;;5052063;28;20047;-50
2023/04/21 09:38:11;;;;;;;5.78;1.15;;;;;;;;;;5057194;28;20045;-48
2023/04/21 09:40:39;;;;;;;3.92;0.82;;;;;;;;;;5055421;28;20036;-48
2023/04/21 09:43:06;;;;;;;6.82;1.02;;;;;;;;;;5052880;28;20040;-48
2023/04/21 09:45:34;;;;;;;6.90;1.30;;;;;;;;;;5058994;28;20081;-48
2023/04/21 09:48:01;;;;;;;8.48;0.90;;;;;;;;;;5063739;28;20495;-49
2023/04/21 09:50:29;;;;;;;7.68;1.08;;;;;;;;;;5052628;28;20556;-49
2023/04/21 09:52:57;;;;;;;7.72;1.25;;;;;;;;;;5043793;28;20051;-49
2023/04/21 09:55:28;;;;;;;5.15;1.20;;;;;;;;;;5052474;28;20043;-48
2023/04/21 09:57:59;;;;;;;5.25;0.80;;;;;;;;;;5052457;28;20036;-48
2023/04/21 10:00:30;;;;;;;7.32;1.30;;;;;;;;;;5051879;28;20036;-48
2023/04/21 10:03:09;;;;;;;5.03;1.13;;;;;;;;;;5052539;28;20581;-50
2023/04/21 10:05:36;;;;;;;4.43;1.15;;;;;;;;;;5052075;28;20414;-47
2023/04/21 10:08:05;;;;;;;10.88;1.30;;;;;;;;;;5052345;28;20025;-48
2023/04/21 10:10:34;;;;;;;4.38;0.88;;;;;;;;;;5052200;28;20044;-48
2023/04/21 10:13:01;;;;;;;5.50;0.90;;;;;;;;;;5052189;28;20107;-49
2023/04/21 10:15:41;;;;;;;5.72;0.95;;;;;;;;;;5052177;28;20451;-49
2023/04/21 10:18:19;;;;;;;5.78;1.40;;;;;;;;;;5052170;28;20100;-48
2023/04/21 10:20:52;;;;;;;6.90;1.20;;;;;;;;;;5051947;28;20055;-50
2023/04/21 10:23:30;;;;;;;4.30;1.00;;;;;;;;;;5052150;28;20025;-47
2023/04/21 10:26:10;;;;;;;7.50;1.25;;;;;;;;;;5052147;28;20076;-48
2023/04/21 10:28:46;;;;;;;8.55;1.20;;;;;;;;;;5051758;28;20032;-49
2023/04/21 10:31:20;;;;;;;15.77;1.38;;;;;;;;;;5051801;28;20044;-48
2023/04/21 10:34:06;;;;;;;7.50;1.30;;;;;;;;;;5051851;28;20033;-48
2023/04/21 10:36:34;;;;;;;8.38;1.50;;;;;;;;;;5051868;28;20109;-49
2023/04/21 10:39:04;;;;;;;10.13;1.42;;;;;;;;;;5043071;28;20068;-49
2023/04/21 10:41:31;;;;;;;5.15;1.60;;;;;;;;;;5051922;28;20017;-48
2023/04/21 10:44:11;;;;;;;8.30;1.42;;;;;;;;;;5043292;28;20033;-48
2023/04/21 10:46:48;;;;;;;7.38;1.30;;;;;;;;;;5051816;28;20108;-48
2023/04/21 10:49:25;;;;;;;9.43;1.58;;;;;;;;;;5051683;28;20025;-48
2023/04/21 10:52:07;;;;;;;7.75;1.35;;;;;;;;;;5051607;28;20025;-48
2023/04/21 10:54:44;;;;;;;12.93;1.58;;;;;;;;;;5051553;28;20033;-48
2023/04/21 10:57:12;;;;;;;5.65;1.25;;;;;;;;;;5051501;28;20033;-49
2023/04/21 10:59:40;;;;;;;9.18;1.88;;;;;;;;;;5051492;28;20058;-48
2023/04/21 11:02:07;;;;;;;7.47;1.40;;;;;;;;;;5051503;28;20029;-49
2023/04/21 11:04:35;;;;;;;8.30;1.58;;;;;;;;;;5050903;28;20053;-48
2023/04/21 11:07:08;;;;;;;6.43;1.67;;;;;;;;;;5051365;28;20025;-47
2023/04/21 11:09:36;;;;;;;9.52;1.42;;;;;;;;;;5060400;28;20044;-50
2023/04/21 11:12:07;;;;;;;7.43;1.48;;;;;;;;;;5071886;28;20040;-50
2023/04/21 11:14:35;;;;;;;12.10;1.92;;;;;;;;;;5075247;28;20070;-48
2023/04/21 11:17:02;;;;;;;48.65;3.85;;;;;;;;;;5075028;28;20091;-55
2023/04/21 11:19:32;;;;;;;32.08;3.20;;;;;;;;;;5074808;28;20559;-58
2023/04/21 11:21:59;;;;;;;48.72;3.42;;;;;;;;;;5073921;28;20033;-53
2023/04/21 11:24:26;;;;;;;55.50;7.00;;;;;;;;;;5074331;28;20040;-50
2023/04/21 11:26:53;;;;;;;79.93;11.38;;;;;;;;;;5074433;28;20098;-55
2023/04/21 11:29:20;;;;;;;187.60;23.35;;;;;;;;;;5074444;28;20024;-58
2023/04/21 11:31:48;;;;;;;92.80;26.50;;;;;;;;;;5056520;28;20036;-51
2023/04/21 11:34:17;;;;;;;86.38;20.83;;;;;;;;;;5061053;28;20098;-54
2023/04/21 11:36:45;;;;;;;245.85;27.33;;;;;;;;;;5062431;28;20032;-57
2023/04/21 11:39:14;;;;;;;127.60;25.60;;;;;;;;;;5074341;28;20181;-59
2023/04/21 11:41:43;;;;;;;97.07;18.80;;;;;;;;;;5074584;28;20441;-57
2023/04/21 11:44:10;;;;;;;102.22;22.70;;;;;;;;;;5074543;28;20038;-60
2023/04/21 11:46:38;;;;;;;94.70;27.55;;;;;;;;;;5074656;28;20043;-59
2023/04/21 11:49:06;;;;;;;72.25;19.00;;;;;;;;;;5074486;28;20037;-60
2023/04/21 11:51:34;;;;;;;70.95;12.73;;;;;;;;;;5074403;28;20106;-56
2023/04/21 11:54:01;;;;;;;60.55;11.55;;;;;;;;;;5074624;28;20131;-56
2023/04/21 11:56:28;;;;;;;41.35;9.30;;;;;;;;;;5074322;28;20031;-52
2023/04/21 11:58:55;;;;;;;60.40;11.05;;;;;;;;;;5074328;28;20039;-51
2023/04/21 12:01:22;;;;;;;67.10;11.63;;;;;;;;;;5072620;28;20040;-51
2023/04/21 12:03:53;;;;;;;49.38;9.18;;;;;;;;;;5074052;28;20111;-52
2023/04/21 12:06:25;;;;;;;53.30;9.90;;;;;;;;;;5072061;28;20110;-59
2023/04/21 12:08:52;;;;;;;;;;;;;;;;;;5074665;28;20033;-58
2023/04/21 12:11:19;;;;;;;58.60;7.70;;;;;;;;;;5057538;28;19920;-56
2023/04/21 12:13:46;;;;;;;31.55;7.38;;;;;;;;;;5046030;28;20122;-52
2023/04/21 12:16:13;;;;;;;42.42;5.70;;;;;;;;;;5073630;28;20356;-54
2023/04/21 12:18:40;;;;;;;39.92;6.18;;;;;;;;;;5074112;28;20028;-53
2023/04/21 12:21:07;;;;;;;47.08;6.68;;;;;;;;;;5073487;28;20402;-61
2023/04/21 12:23:34;;;;;;;44.17;7.10;;;;;;;;;;5073180;28;20115;-60
2023/04/21 12:26:01;;;;;;;42.58;6.88;;;;;;;;;;5073096;28;20077;-52
2023/04/21 12:28:30;;;;;;;46.25;6.10;;;;;;;;;;5073615;28;20044;-54
2023/04/21 12:30:56;;;;;;;51.67;5.95;;;;;;;;;;5073546;28;20016;-59
2023/04/21 12:33:23;;;;;;;39.33;5.55;;;;;;;;;;5073898;28;20036;-55
2023/04/21 12:35:50;;;;;;;38.28;4.88;;;;;;;;;;5072118;28;20024;-55
2023/04/21 12:38:17;;;;;;;47.03;6.82;;;;;;;;;;5072898;28;20028;-58
2023/04/21 12:40:44;;;;;;;37.67;6.40;;;;;;;;;;5073061;28;20384;-54
2023/04/21 12:43:11;;;;;;;43.50;6.72;;;;;;;;;;5067832;28;20020;-60
2023/04/21 12:45:38;;;;;;;41.30;6.40;;;;;;;;;;5067684;28;20085;-54
2023/04/21 12:48:06;;;;;;;55.65;6.55;;;;;;;;;;5073103;28;20032;-57
2023/04/21 12:50:33;;;;;;;36.03;5.63;;;;;;;;;;5069543;28;20029;-55
2023/04/21 12:53:00;;;;;;;28.00;4.60;;;;;;;;;;5071937;28;20036;-60
2023/04/21 12:55:27;;;;;;;34.72;4.47;;;;;;;;;;5073309;28;20150;-59
2023/04/21 12:57:54;;;;;;;36.17;4.95;;;;;;;;;;5072655;28;20036;-60
2023/04/21 13:00:21;;;;;;;31.95;4.85;;;;;;;;;;5073066;28;20490;-59
2023/04/21 13:02:48;;;;;;;57.67;5.68;;;;;;;;;;5072718;28;20443;-61
2023/04/21 13:05:15;;;;;;;38.53;4.80;;;;;;;;;;5072641;28;20545;-53
2023/04/21 13:07:42;;;;;;;28.00;4.80;;;;;;;;;;5107510;22;20064;-36
2023/04/21 13:10:10;;;;;;;48.17;4.13;;;;;;;;;;5097890;28;20024;-35
2023/04/21 13:12:37;;;;;;;24.60;4.30;;;;;;;;;;5113599;28;20024;-36
2023/04/21 13:15:04;;;;;;;35.30;5.32;;;;;;;;;;5113019;28;20031;-33
2023/04/21 13:17:31;;;;;;;46.10;4.75;;;;;;;;;;5113413;28;20024;-35
2023/04/21 13:19:58;;;;;;;33.45;4.57;;;;;;;;;;5099263;28;20048;-33
2023/04/21 13:22:25;;;;;;;43.92;4.28;;;;;;;;;;5113049;28;20031;-35
2023/04/21 13:24:52;;;;;;;30.20;4.68;;;;;;;;;;5111520;28;20038;-34
2023/04/21 13:27:19;;;;;;;43.35;5.28;;;;;;;;;;5101385;28;20080;-37
2023/04/21 13:29:47;;;;;;;60.28;6.00;;;;;;;;;;5113361;28;20103;-37
2023/04/21 13:32:15;;;;;;;50.83;5.60;;;;;;;;;;5113321;28;20564;-40
2023/04/21 13:34:42;;;;;;;63.80;6.60;;;;;;;;;;5113042;28;20020;-37
2023/04/21 13:37:11;;;;;;;51.47;5.03;;;;;;;;;;5112188;28;20037;-37
2023/04/21 13:39:38;;;;;;;47.55;5.05;;;;;;;;;;5112822;28;20556;-37
2023/04/21 13:42:05;;;;;;;52.83;5.50;;;;;;;;;;5112901;28;20485;-37
2023/04/21 13:44:32;;;;;;;67.35;6.25;;;;;;;;;;5112656;28;20095;-35
2023/04/21 13:47:00;;;;;;;65.30;5.40;;;;;;;;;;5112713;28;20059;-35
2023/04/21 13:49:27;;;;;;;39.10;4.88;;;;;;;;;;5112606;28;20065;-37
2023/04/21 13:51:53;;;;;;;52.25;5.05;;;;;;;;;;5112822;28;20032;-37
2023/04/21 13:54:20;;;;;;;31.02;4.40;;;;;;;;;;5112452;28;20084;-35
2023/04/21 13:56:47;;;;;;;42.20;5.00;;;;;;;;;;5112558;28;20042;-35
2023/04/21 13:59:15;;;;;;;54.63;5.63;;;;;;;;;;5112446;28;20034;-37
2023/04/21 14:01:42;;;;;;;36.53;5.97;;;;;;;;;;5112527;28;20045;-34
2023/04/21 14:04:09;;;;;;;47.55;4.95;;;;;;;;;;5112540;28;20028;-35
2023/04/21 14:06:36;;;;;;;31.83;3.58;;;;;;;;;;5108946;28;20601;-35
2023/04/21 14:09:03;;;;;;;41.15;4.55;;;;;;;;;;5103489;28;20080;-35
2023/04/21 14:11:30;;;;;;;44.92;4.85;;;;;;;;;;5112311;28;20023;-37
2023/04/21 14:13:57;;;;;;;35.10;4.68;;;;;;;;;;5112275;28;20481;-35
2023/04/21 14:16:24;;;;;;;36.17;5.10;;;;;;;;;;5098567;28;20023;-35
2023/04/21 14:18:51;;;;;;;34.67;4.47;;;;;;;;;;5112222;28;20494;-35
2023/04/21 14:21:19;;;;;;;28.85;3.38;;;;;;;;;;5112239;28;20059;-35
2023/04/21 14:23:46;;;;;;;40.42;5.20;;;;;;;;;;5112071;28;20036;-37
2023/04/21 14:26:13;;;;;;;51.25;4.63;;;;;;;;;;5111944;28;20024;-38
2023/04/21 14:28:40;;;;;;;33.17;4.38;;;;;;;;;;5111969;28;20393;-35
2023/04/21 14:31:07;;;;;;;31.15;4.80;;;;;;;;;;5112145;28;20110;-35
2023/04/21 14:33:34;;;;;;;51.22;5.13;;;;;;;;;;5111943;27;20034;-34
2023/04/21 14:36:02;;;;;;;50.78;5.43;;;;;;;;;;5111943;27;20024;-35